Time;durP1;ratioP1;P1;durP2;ratioP2;P2;SDS_P1;SDS_P2;PMS_P1;PMS_P2;Temp;Humidity;BMP_temperature;BMP_pressure;BME280_temperature;BME280_humidity;BME280_pressure;Samples;Min_cycle;Max_cycle;Signal;HPM_P1;HPM_P2
2022/07/31 00:00:08;;;;;;;0.28;0.28;;;;;;;29.51;38.54;99337.81;5051117;28;20041;-58
2022/07/31 00:02:34;;;;;;;0.30;0.30;;;;;;;29.50;38.42;99327.69;5050681;28;20425;-59
2022/07/31 00:04:59;;;;;;;0.20;0.15;;;;;;;29.50;38.70;99331.34;5050686;28;20052;-58
2022/07/31 00:07:25;;;;;;;0.30;0.30;;;;;;;29.51;38.52;99330.13;5050566;28;20401;-59
2022/07/31 00:09:50;;;;;;;1.13;0.20;;;;;;;29.49;38.57;99340.22;5050577;28;20500;-58
2022/07/31 00:12:16;;;;;;;0.32;0.20;;;;;;;29.51;38.60;99334.97;5050726;28;20029;-59
2022/07/31 00:14:41;;;;;;;0.20;0.20;;;;;;;29.51;38.71;99340.63;5050645;28;20056;-59
2022/07/31 00:17:07;;;;;;;0.43;0.30;;;;;;;29.51;38.56;99347.06;5050459;28;20450;-59
2022/07/31 00:19:32;;;;;;;0.30;0.20;;;;;;;29.51;38.85;99352.69;5050375;28;20120;-58
2022/07/31 00:21:58;;;;;;;0.10;0.10;;;;;;;29.50;38.82;99351.06;5050517;28;20045;-58
2022/07/31 00:24:24;;;;;;;0.13;0.13;;;;;;;29.51;38.75;99361.13;5050596;28;20037;-58
2022/07/31 00:26:49;;;;;;;0.52;0.30;;;;;;;29.50;38.79;99356.72;5050299;28;20086;-59
2022/07/31 00:29:15;;;;;;;0.43;0.30;;;;;;;29.51;38.67;99357.53;5048161;28;20107;-58
2022/07/31 00:31:40;;;;;;;0.68;0.30;;;;;;;29.49;38.65;99348.66;5050456;28;20527;-58
2022/07/31 00:34:05;;;;;;;0.38;0.20;;;;;;;29.50;38.70;99356.72;5050328;28;20053;-58
2022/07/31 00:36:31;;;;;;;0.20;0.20;;;;;;;29.52;38.90;99364.75;5050034;28;20523;-59
2022/07/31 00:38:57;;;;;;;0.40;0.30;;;;;;;29.48;38.40;99355.53;5050261;28;20445;-58
2022/07/31 00:41:23;;;;;;;0.40;0.30;;;;;;;29.51;38.64;99360.34;5050220;28;20512;-58
2022/07/31 00:43:48;;;;;;;0.55;0.20;;;;;;;29.51;38.63;99366.78;5050182;28;20049;-59
2022/07/31 00:46:13;;;;;;;0.35;0.22;;;;;;;29.52;38.41;99367.56;5050195;28;20045;-58
2022/07/31 00:48:39;;;;;;;0.50;0.30;;;;;;;29.50;38.58;99367.97;5050040;28;20136;-59
2022/07/31 00:51:04;;;;;;;0.70;0.30;;;;;;;29.53;38.81;99374.78;5050082;28;20063;-58
2022/07/31 00:53:30;;;;;;;0.40;0.30;;;;;;;29.52;38.54;99379.63;5049884;28;20107;-59
2022/07/31 00:55:56;;;;;;;0.38;0.20;;;;;;;29.49;38.40;99374.03;5049872;28;20068;-57
2022/07/31 00:58:21;;;;;;;0.13;0.13;;;;;;;29.51;38.51;99377.25;5049793;28;20083;-57
2022/07/31 01:00:47;;;;;;;0.40;0.32;;;;;;;29.50;38.52;99384.88;5049986;28;20084;-58
2022/07/31 01:03:13;;;;;;;0.20;0.20;;;;;;;29.51;38.45;99386.50;5049978;28;20041;-58
2022/07/31 01:05:38;;;;;;;0.20;0.10;;;;;;;29.51;38.77;99380.88;5050075;28;20555;-57
2022/07/31 01:08:04;;;;;;;0.20;0.20;;;;;;;29.51;38.64;99389.31;5050207;28;20048;-59
2022/07/31 01:10:53;;;;;;;0.45;0.25;;;;;;;29.51;38.54;99383.69;5049871;28;20525;-59
2022/07/31 01:13:30;;;;;;;0.30;0.20;;;;;;;29.51;38.83;99388.53;5049554;28;20048;-59
2022/07/31 01:15:58;;;;;;;0.38;0.20;;;;;;;29.52;38.62;99392.94;5049936;28;20063;-58
2022/07/31 01:18:26;;;;;;;0.50;0.40;;;;;;;29.48;38.43;99381.69;5049070;28;20135;-59
2022/07/31 01:20:55;;;;;;;0.43;0.22;;;;;;;29.52;38.86;99392.94;5049551;28;20068;-59
2022/07/31 01:23:37;;;;;;;0.30;0.20;;;;;;;29.52;38.50;99392.94;5049402;28;20055;-57
2022/07/31 01:26:34;;;;;;;0.20;0.20;;;;;;;29.52;38.91;99390.91;5049664;28;20045;-59
2022/07/31 01:29:17;;;;;;;0.20;0.20;;;;;;;29.50;38.42;99396.16;5049726;28;20455;-59
2022/07/31 01:32:08;;;;;;;0.68;0.30;;;;;;;29.50;38.50;99395.34;5049639;28;20037;-59
2022/07/31 01:34:33;;;;;;;0.40;0.20;;;;;;;29.52;38.86;99401.41;5049538;28;20509;-59
2022/07/31 01:37:07;;;;;;;0.10;0.10;;;;;;;29.48;38.70;99389.34;5049527;28;20037;-57
2022/07/31 01:39:35;;;;;;;0.55;0.30;;;;;;;29.51;38.58;99397.78;5049637;28;20037;-57
2022/07/31 01:42:07;;;;;;;0.90;0.30;;;;;;;29.50;38.60;99398.97;5049563;28;20052;-58
2022/07/31 01:44:42;;;;;;;0.30;0.30;;;;;;;29.49;38.71;99394.56;5049724;28;20102;-58
2022/07/31 01:47:10;;;;;;;0.30;0.30;;;;;;;29.50;38.74;99396.16;5046863;28;20060;-59
2022/07/31 01:49:37;;;;;;;0.30;0.30;;;;;;;29.49;38.95;99400.19;5049397;28;20044;-59
2022/07/31 01:52:04;;;;;;;0.20;0.20;;;;;;;29.51;38.66;99397.78;5049320;28;20453;-58
2022/07/31 01:54:31;;;;;;;0.40;0.20;;;;;;;29.50;38.60;99404.63;5049200;28;20262;-59
2022/07/31 01:56:58;;;;;;;0.25;0.22;;;;;;;29.50;38.95;99401.81;5049268;28;20428;-59
2022/07/31 01:59:25;;;;;;;0.77;0.30;;;;;;;29.50;38.79;99407.44;5049394;28;20057;-58
2022/07/31 02:01:52;;;;;;;0.95;0.30;;;;;;;29.52;38.90;99407.03;5049188;28;20080;-59
2022/07/31 02:04:19;;;;;;;0.20;0.20;;;;;;;29.50;38.71;99401.81;5049061;28;20052;-59
2022/07/31 02:06:47;;;;;;;0.60;0.30;;;;;;;29.51;38.64;99408.25;5049111;28;20057;-59
2022/07/31 02:09:16;;;;;;;0.28;0.28;;;;;;;29.48;38.43;99397.81;5049220;28;20098;-57
2022/07/31 02:11:43;;;;;;;0.52;0.25;;;;;;;29.51;38.58;99399.81;5049196;28;20053;-58
2022/07/31 02:14:08;;;;;;;0.20;0.20;;;;;;;29.52;38.59;99407.03;5049121;28;20053;-58
2022/07/31 02:16:36;;;;;;;0.20;0.20;;;;;;;29.52;38.76;99407.03;5048898;28;20056;-58
2022/07/31 02:19:02;;;;;;;0.43;0.20;;;;;;;29.51;38.74;99405.44;5048841;28;20048;-58
2022/07/31 02:21:27;;;;;;;0.28;0.20;;;;;;;29.50;38.92;99412.25;5048798;28;20051;-58
2022/07/31 02:23:53;;;;;;;0.50;0.28;;;;;;;29.50;39.04;99413.06;5048810;28;20135;-58
2022/07/31 02:26:20;;;;;;;0.20;0.20;;;;;;;29.50;38.86;99413.06;5048666;28;20051;-59
2022/07/31 02:28:47;;;;;;;0.20;0.20;;;;;;;29.51;38.85;99419.53;5048894;28;20063;-59
2022/07/31 02:31:15;;;;;;;0.70;0.40;;;;;;;29.51;38.68;99425.16;5050637;28;20120;-57
2022/07/31 02:33:44;;;;;;;0.38;0.20;;;;;;;29.52;38.98;99421.13;5052347;28;20083;-58
2022/07/31 02:36:12;;;;;;;0.40;0.38;;;;;;;29.48;38.58;99415.50;5052456;28;20051;-58
2022/07/31 02:38:38;;;;;;;0.52;0.30;;;;;;;29.51;38.85;99420.31;5052141;28;20048;-58
2022/07/31 02:41:05;;;;;;;0.20;0.20;;;;;;;29.50;38.66;99413.06;5052165;28;20080;-57
2022/07/31 02:43:34;;;;;;;0.10;0.10;;;;;;;29.51;38.63;99420.31;5052150;28;20071;-59
2022/07/31 02:46:00;;;;;;;0.43;0.30;;;;;;;29.50;38.83;99415.91;5052198;28;20049;-58
2022/07/31 02:48:26;;;;;;;0.35;0.25;;;;;;;29.51;38.86;99423.16;5051971;28;20045;-57
2022/07/31 02:50:52;;;;;;;0.47;0.40;;;;;;;29.49;38.55;99414.28;5051903;28;20094;-58
2022/07/31 02:53:18;;;;;;;0.20;0.20;;;;;;;29.52;38.67;99413.47;5051825;28;20103;-58
2022/07/31 02:55:45;;;;;;;0.25;0.20;;;;;;;29.51;39.08;99413.91;5051946;28;20052;-59
2022/07/31 02:58:11;;;;;;;0.25;0.25;;;;;;;29.51;39.02;99417.50;5051968;28;20052;-58
2022/07/31 03:00:36;;;;;;;0.55;0.30;;;;;;;29.51;38.87;99420.31;5051604;28;20045;-59
2022/07/31 03:03:03;;;;;;;0.20;0.20;;;;;;;29.51;38.68;99411.09;5051507;28;20509;-59
2022/07/31 03:05:30;;;;;;;0.47;0.32;;;;;;;29.52;38.55;99421.91;5051859;28;20048;-59
2022/07/31 03:07:55;;;;;;;0.22;0.20;;;;;;;29.51;38.71;99417.50;5051693;28;20126;-58
2022/07/31 03:10:21;;;;;;;0.35;0.25;;;;;;;29.52;38.44;99421.13;5051658;28;20524;-57
2022/07/31 03:12:51;;;;;;;0.32;0.20;;;;;;;29.50;38.64;99418.72;5051699;28;20045;-58
2022/07/31 03:15:19;;;;;;;0.28;0.22;;;;;;;29.51;38.66;99420.31;5051641;28;20053;-58
2022/07/31 03:17:46;;;;;;;0.32;0.20;;;;;;;29.51;38.71;99417.50;5051614;28;20045;-59
2022/07/31 03:20:13;;;;;;;0.40;0.15;;;;;;;29.50;38.68;99424.34;5051418;28;20041;-59
2022/07/31 03:22:39;;;;;;;0.20;0.20;;;;;;;29.48;38.84;99418.34;5051519;28;20959;-57
2022/07/31 03:25:06;;;;;;;0.40;0.20;;;;;;;29.51;38.76;99428.78;5051575;28;20048;-59
2022/07/31 03:27:32;;;;;;;0.30;0.30;;;;;;;29.51;38.64;99417.50;5051432;28;20382;-59
2022/07/31 03:29:57;;;;;;;0.35;0.20;;;;;;;29.50;38.90;99413.06;5051174;28;20044;-58
2022/07/31 03:32:23;;;;;;;0.82;0.30;;;;;;;29.51;38.93;99420.31;5051372;28;20091;-57
2022/07/31 03:34:48;;;;;;;0.20;0.20;;;;;;;29.50;38.80;99410.25;5051253;28;20417;-58
2022/07/31 03:37:14;;;;;;;0.68;0.30;;;;;;;29.51;38.78;99419.53;5051076;28;20417;-58
2022/07/31 03:39:40;;;;;;;0.38;0.28;;;;;;;29.51;38.89;99420.31;5051226;28;20045;-58
2022/07/31 03:42:09;;;;;;;0.30;0.30;;;;;;;29.51;38.85;99420.31;5050852;28;20459;-59
2022/07/31 03:44:36;;;;;;;0.52;0.40;;;;;;;29.50;38.63;99413.06;5051457;28;20159;-59
2022/07/31 03:47:03;;;;;;;0.30;0.20;;;;;;;29.49;38.68;99407.84;5051203;28;20531;-57
2022/07/31 03:49:30;;;;;;;0.60;0.35;;;;;;;29.51;39.01;99416.72;5051097;28;20433;-58
2022/07/31 03:51:55;;;;;;;0.80;0.20;;;;;;;29.51;38.67;99425.97;5051025;28;20056;-58
2022/07/31 03:54:21;;;;;;;0.20;0.20;;;;;;;29.50;38.70;99420.72;5051014;28;20048;-59
2022/07/31 03:56:48;;;;;;;0.32;0.30;;;;;;;29.50;38.82;99424.34;5050942;28;20560;-57
2022/07/31 03:59:15;;;;;;;0.22;0.20;;;;;;;29.50;39.04;99421.53;5050768;28;20056;-58
2022/07/31 04:01:42;;;;;;;0.20;0.20;;;;;;;29.51;39.01;99419.53;5050875;28;20037;-57
2022/07/31 04:04:08;;;;;;;0.38;0.30;;;;;;;29.51;38.66;99420.31;5051067;28;20064;-58
2022/07/31 04:06:33;;;;;;;0.10;0.10;;;;;;;29.51;38.94;99425.16;5050738;28;20068;-57
2022/07/31 04:09:02;;;;;;;0.20;0.20;;;;;;;29.51;39.01;99423.16;5050689;28;20135;-59
2022/07/31 04:11:28;;;;;;;0.57;0.30;;;;;;;29.50;38.74;99423.53;5050813;28;20115;-59
2022/07/31 04:13:54;;;;;;;0.32;0.20;;;;;;;29.50;38.79;99430.00;5050775;28;20057;-59
2022/07/31 04:16:19;;;;;;;1.00;0.30;;;;;;;29.50;38.80;99424.34;5050729;28;20110;-58
2022/07/31 04:18:45;;;;;;;0.20;0.20;;;;;;;29.50;39.04;99418.72;5050590;28;20037;-58
2022/07/31 04:21:11;;;;;;;0.30;0.20;;;;;;;29.51;38.84;99425.16;5050510;28;20053;-57
2022/07/31 04:23:36;;;;;;;0.30;0.30;;;;;;;29.50;38.68;99427.16;5050502;28;20041;-59
2022/07/31 04:26:02;;;;;;;0.28;0.28;;;;;;;29.50;39.02;99426.34;5050320;28;20068;-58
2022/07/31 04:28:27;;;;;;;0.47;0.30;;;;;;;29.49;38.75;99428.38;5050384;28;20102;-58
2022/07/31 04:30:52;;;;;;;0.20;0.20;;;;;;;29.47;38.95;99425.19;5050386;28;20053;-59
2022/07/31 04:33:18;;;;;;;0.22;0.22;;;;;;;29.48;38.63;99429.59;5050343;28;20548;-59
2022/07/31 04:35:43;;;;;;;0.22;0.22;;;;;;;29.49;38.68;99434.00;5050655;28;20044;-58
2022/07/31 04:38:10;;;;;;;0.25;0.20;;;;;;;29.50;38.56;99440.44;5050269;28;20575;-59
2022/07/31 04:40:36;;;;;;;0.20;0.20;;;;;;;29.49;39.10;99433.22;5050256;28;20057;-59
2022/07/31 04:43:02;;;;;;;0.30;0.20;;;;;;;29.49;39.01;99434.00;5050333;28;20041;-58
2022/07/31 04:45:28;;;;;;;0.45;0.30;;;;;;;29.49;38.72;99448.09;5050360;28;20509;-59
2022/07/31 04:47:53;;;;;;;0.20;0.20;;;;;;;29.49;38.88;99439.66;5050183;28;20041;-59
2022/07/31 04:50:19;;;;;;;0.20;0.20;;;;;;;29.49;38.87;99448.09;5050115;28;20045;-59
2022/07/31 04:52:44;;;;;;;0.30;0.20;;;;;;;29.50;38.94;99446.06;5049617;28;20116;-57
2022/07/31 04:55:10;;;;;;;0.30;0.20;;;;;;;29.49;38.90;99438.84;5049917;28;20461;-58
2022/07/31 04:57:35;;;;;;;0.30;0.20;;;;;;;29.50;38.78;99446.91;5050212;28;20091;-58
2022/07/31 05:00:00;;;;;;;0.60;0.20;;;;;;;29.49;38.85;99433.22;5050118;28;20037;-58
2022/07/31 05:02:26;;;;;;;0.47;0.20;;;;;;;29.48;38.72;99438.06;5050021;28;20045;-58
2022/07/31 05:04:51;;;;;;;0.47;0.20;;;;;;;29.48;38.84;99443.69;5049938;28;20048;-58
2022/07/31 05:07:17;;;;;;;0.30;0.30;;;;;;;29.50;38.93;99446.91;5050096;28;20041;-58
2022/07/31 05:09:42;;;;;;;0.22;0.20;;;;;;;29.48;38.80;99440.09;5049904;28;20140;-59
2022/07/31 05:12:08;;;;;;;0.20;0.20;;;;;;;29.50;38.75;99446.06;5050104;28;20045;-58
2022/07/31 05:14:33;;;;;;;0.80;0.30;;;;;;;29.49;38.96;99442.47;5049663;28;20421;-59
2022/07/31 05:16:58;;;;;;;0.20;0.20;;;;;;;29.48;39.10;99442.91;5049749;28;20041;-58
2022/07/31 05:19:28;;;;;;;0.38;0.20;;;;;;;29.48;38.73;99443.69;5049819;28;20421;-57
2022/07/31 05:21:54;;;;;;;0.30;0.28;;;;;;;29.47;38.97;99442.13;5049489;28;20555;-59
2022/07/31 05:24:20;;;;;;;0.20;0.20;;;;;;;29.48;39.02;99438.06;5049762;28;20041;-59
2022/07/31 05:26:46;;;;;;;0.50;0.35;;;;;;;29.48;38.97;99443.69;5049693;28;20049;-58
2022/07/31 05:29:11;;;;;;;0.30;0.30;;;;;;;29.50;39.07;99446.06;5049719;28;20056;-58
2022/07/31 05:31:36;;;;;;;0.90;0.20;;;;;;;29.47;38.81;99436.47;5049496;28;20045;-57
2022/07/31 05:34:02;;;;;;;0.28;0.20;;;;;;;29.49;38.76;99445.28;5049756;28;20044;-57
2022/07/31 05:36:27;;;;;;;0.50;0.30;;;;;;;29.50;38.86;99444.06;5049673;28;20045;-58
2022/07/31 05:38:53;;;;;;;0.28;0.20;;;;;;;29.50;39.02;99452.53;5049635;28;20044;-58
2022/07/31 05:41:18;;;;;;;0.40;0.25;;;;;;;29.50;38.68;99449.72;5049782;28;20094;-58
2022/07/31 05:43:44;;;;;;;0.50;0.40;;;;;;;29.50;38.72;99454.53;5049474;28;20068;-58
2022/07/31 05:46:12;;;;;;;0.52;0.30;;;;;;;29.50;38.75;99455.34;5049388;28;20049;-59
2022/07/31 05:48:38;;;;;;;0.30;0.28;;;;;;;29.49;38.78;99450.13;5049491;28;20041;-59
2022/07/31 05:51:09;;;;;;;0.40;0.30;;;;;;;29.48;38.85;99448.53;5049193;28;20048;-58
2022/07/31 05:53:34;;;;;;;0.25;0.25;;;;;;;29.50;38.75;99455.34;5049323;28;20044;-58
2022/07/31 05:56:00;;;;;;;0.20;0.20;;;;;;;29.50;38.97;99455.34;5049256;28;20527;-58
2022/07/31 05:58:25;;;;;;;0.45;0.30;;;;;;;29.49;38.67;99450.13;5049202;28;20132;-58
2022/07/31 06:00:51;;;;;;;0.40;0.30;;;;;;;29.49;39.01;99453.75;5049261;28;20041;-57
2022/07/31 06:03:22;;;;;;;0.20;0.20;;;;;;;29.50;38.72;99451.72;5049374;28;20180;-59
2022/07/31 06:05:47;;;;;;;0.13;0.13;;;;;;;29.50;38.57;99451.72;5052009;28;20148;-59
2022/07/31 06:08:13;;;;;;;1.67;0.30;;;;;;;29.50;39.07;99457.34;5052682;28;20594;-58
2022/07/31 06:10:38;;;;;;;0.55;0.35;;;;;;;29.50;38.76;99454.53;5052598;28;20043;-57
2022/07/31 06:13:04;;;;;;;0.20;0.20;;;;;;;29.48;39.11;99449.34;5052596;28;20057;-59
2022/07/31 06:15:30;;;;;;;0.32;0.20;;;;;;;29.50;38.74;99451.72;5051190;28;20049;-59
2022/07/31 06:17:57;;;;;;;0.28;0.25;;;;;;;29.49;39.09;99453.75;5052461;28;20402;-59
2022/07/31 06:20:23;;;;;;;0.32;0.22;;;;;;;29.49;38.95;99450.91;5052511;28;20037;-57
2022/07/31 06:22:49;;;;;;;0.63;0.30;;;;;;;29.50;39.10;99455.34;5052351;28;20052;-58
2022/07/31 06:25:15;;;;;;;0.40;0.22;;;;;;;29.48;38.81;99446.50;5052462;28;20523;-59
2022/07/31 06:27:41;;;;;;;0.25;0.22;;;;;;;29.50;38.79;99446.06;5052493;28;20543;-58
2022/07/31 06:30:06;;;;;;;0.30;0.30;;;;;;;29.48;38.63;99442.91;5052404;28;20041;-58
2022/07/31 06:32:33;;;;;;;0.38;0.30;;;;;;;29.50;38.68;99449.72;5052231;28;20049;-58
2022/07/31 06:34:59;;;;;;;0.40;0.20;;;;;;;29.50;38.91;99446.06;5052070;28;20045;-57
2022/07/31 06:37:25;;;;;;;0.10;0.10;;;;;;;29.51;38.72;99453.34;5052289;28;20041;-57
2022/07/31 06:39:51;;;;;;;0.35;0.30;;;;;;;29.50;39.06;99449.72;5052162;28;20063;-58
2022/07/31 06:42:18;;;;;;;0.40;0.20;;;;;;;29.49;38.69;99450.13;5052020;28;20390;-58
2022/07/31 06:44:43;;;;;;;0.20;0.20;;;;;;;29.50;38.95;99454.53;5052241;28;20049;-58
2022/07/31 06:47:09;;;;;;;0.73;0.40;;;;;;;29.50;38.84;99452.53;5052168;28;20111;-58
2022/07/31 06:49:34;;;;;;;0.20;0.20;;;;;;;29.51;38.77;99453.34;5052015;28;20080;-59
2022/07/31 06:52:00;;;;;;;0.13;0.10;;;;;;;29.51;38.76;99451.34;5052151;28;20545;-58
2022/07/31 06:54:25;;;;;;;0.20;0.20;;;;;;;29.51;38.77;99456.97;5051800;28;20045;-58
2022/07/31 06:56:50;;;;;;;0.30;0.20;;;;;;;29.52;39.15;99463.41;5051957;28;20053;-58
2022/07/31 06:59:16;;;;;;;0.43;0.17;;;;;;;29.52;38.73;99461.38;5052094;28;20137;-57
2022/07/31 07:01:41;;;;;;;0.38;0.20;;;;;;;29.51;38.86;99459.78;5051851;28;20140;-57
2022/07/31 07:04:08;;;;;;;0.30;0.15;;;;;;;29.52;39.10;99457.75;5051709;28;20049;-57
2022/07/31 07:06:33;;;;;;;0.68;0.40;;;;;;;29.51;38.97;99459.78;5051654;28;20048;-58
2022/07/31 07:08:58;;;;;;;0.30;0.30;;;;;;;29.52;39.03;99450.09;5051613;28;20662;-58
2022/07/31 07:11:24;;;;;;;0.30;0.20;;;;;;;29.53;39.14;99445.25;5051762;28;20103;-59
2022/07/31 07:13:49;;;;;;;0.38;0.30;;;;;;;29.53;38.77;99446.03;5051448;28;20083;-58
2022/07/31 07:16:15;;;;;;;0.60;0.32;;;;;;;29.52;38.89;99447.28;5050633;28;20045;-58
2022/07/31 07:18:41;;;;;;;0.40;0.25;;;;;;;29.53;38.91;99451.69;5051554;28;20047;-57
2022/07/31 07:21:07;;;;;;;0.22;0.20;;;;;;;29.53;38.69;99451.69;5051338;28;20037;-58
2022/07/31 07:23:32;;;;;;;0.25;0.20;;;;;;;29.52;39.15;99444.47;5051555;28;20052;-58
2022/07/31 07:25:58;;;;;;;0.30;0.30;;;;;;;29.53;38.77;99448.06;5051150;28;20505;-58
2022/07/31 07:28:23;;;;;;;0.20;0.20;;;;;;;29.53;39.07;99457.31;5051258;28;20041;-59
2022/07/31 07:30:49;;;;;;;0.32;0.32;;;;;;;29.54;38.87;99455.28;5051459;28;20406;-58
2022/07/31 07:33:15;;;;;;;0.20;0.20;;;;;;;29.53;38.76;99454.50;5051471;28;20052;-58
2022/07/31 07:35:40;;;;;;;0.32;0.20;;;;;;;29.53;39.11;99457.31;5051307;28;20196;-59
2022/07/31 07:38:06;;;;;;;0.57;0.30;;;;;;;29.52;38.99;99455.72;5051371;28;20102;-58
2022/07/31 07:40:32;;;;;;;0.30;0.20;;;;;;;29.53;38.73;99450.91;5051296;28;20052;-58
2022/07/31 07:42:57;;;;;;;0.45;0.22;;;;;;;29.55;38.84;99446.41;5051315;28;20053;-57
2022/07/31 07:45:23;;;;;;;0.30;0.20;;;;;;;29.54;39.02;99447.63;5051215;28;20517;-58
2022/07/31 07:47:48;;;;;;;0.50;0.30;;;;;;;29.55;38.73;99443.56;5051296;28;20052;-59
2022/07/31 07:50:14;;;;;;;0.38;0.30;;;;;;;29.52;38.81;99432.41;5051037;28;20069;-58
2022/07/31 07:52:40;;;;;;;0.63;0.38;;;;;;;29.54;38.75;99430.72;5050913;28;20397;-58
2022/07/31 07:55:07;;;;;;;0.38;0.30;;;;;;;29.55;38.98;99437.94;5051071;28;20037;-57
2022/07/31 07:57:34;;;;;;;0.20;0.20;;;;;;;29.54;38.76;99430.72;5051112;28;20457;-57
2022/07/31 08:00:03;;;;;;;0.30;0.30;;;;;;;29.56;38.92;99430.28;5050813;28;20110;-57
2022/07/31 08:02:28;;;;;;;0.40;0.30;;;;;;;29.56;38.61;99435.91;5050852;28;20045;-58
2022/07/31 08:04:54;;;;;;;0.20;0.20;;;;;;;29.52;39.12;99427.56;5050860;28;20405;-58
2022/07/31 08:07:29;;;;;;;0.30;0.20;;;;;;;29.56;38.79;99433.09;5051042;28;20409;-59
2022/07/31 08:09:56;;;;;;;0.22;0.20;;;;;;;29.56;38.99;99433.88;5048115;28;20040;-58
2022/07/31 08:12:22;;;;;;;0.20;0.20;;;;;;;29.56;38.96;99416.97;5050819;28;20386;-58
2022/07/31 08:14:47;;;;;;;0.40;0.22;;;;;;;29.57;38.78;99414.94;5050609;28;20504;-59
2022/07/31 08:17:13;;;;;;;0.17;0.17;;;;;;;29.57;38.84;99418.56;5050492;28;20041;-57
2022/07/31 08:19:39;;;;;;;0.20;0.20;;;;;;;29.56;38.80;99414.16;5050682;28;20487;-57
2022/07/31 08:22:04;;;;;;;0.70;0.30;;;;;;;29.57;38.97;99415.75;5050672;28;20049;-57
2022/07/31 08:24:30;;;;;;;0.38;0.20;;;;;;;29.55;39.06;99409.75;5050590;28;20041;-58
2022/07/31 08:29:24;;;;;;;0.73;0.40;;;;;;;29.55;38.58;99398.47;5048613;28;20052;-58
2022/07/31 08:31:50;;;;;;;0.38;0.25;;;;;;;29.57;39.12;99409.31;5050529;28;20053;-58
2022/07/31 08:34:16;;;;;;;0.55;0.30;;;;;;;29.56;39.14;99399.28;5050241;28;20048;-59
2022/07/31 08:36:42;;;;;;;0.35;0.32;;;;;;;29.57;38.70;99400.84;5050158;28;20053;-59
2022/07/31 08:39:07;;;;;;;0.30;0.30;;;;;;;29.58;39.02;99396.84;5050207;28;20461;-59
2022/07/31 08:41:33;;;;;;;0.30;0.30;;;;;;;29.58;38.78;99397.63;5050102;28;20069;-58
2022/07/31 08:43:58;;;;;;;0.28;0.20;;;;;;;29.57;38.86;99392.41;5050128;28;20048;-57
2022/07/31 08:46:24;;;;;;;0.32;0.20;;;;;;;29.59;38.95;99384.31;5050323;28;20493;-59
2022/07/31 08:48:54;;;;;;;0.20;0.20;;;;;;;29.56;39.16;99383.16;5050285;28;20053;-57
2022/07/31 08:51:22;;;;;;;0.17;0.17;;;;;;;29.56;39.02;99383.16;5050163;28;20078;-58
2022/07/31 08:53:50;;;;;;;0.25;0.20;;;;;;;29.58;38.79;99380.72;5050232;28;20194;-58
2022/07/31 08:56:16;;;;;;;0.40;0.30;;;;;;;29.59;38.92;99385.13;5050281;28;20053;-59
2022/07/31 08:58:42;;;;;;;0.43;0.30;;;;;;;29.55;39.02;99375.94;5050190;28;20179;-59
2022/07/31 09:01:11;;;;;;;0.45;0.30;;;;;;;29.58;39.17;99374.28;5049805;28;20102;-59
2022/07/31 09:03:36;;;;;;;0.55;0.30;;;;;;;29.58;39.05;99372.25;5049855;28;20126;-58
2022/07/31 09:06:03;;;;;;;0.20;0.20;;;;;;;29.59;38.92;99368.22;5049774;28;20067;-58
2022/07/31 09:08:31;;;;;;;0.50;0.20;;;;;;;29.59;38.86;99364.59;5049909;28;20094;-58
2022/07/31 09:11:10;;;;;;;0.20;0.20;;;;;;;29.57;39.03;99362.19;5049873;28;20140;-58
2022/07/31 09:13:35;;;;;;;0.40;0.30;;;;;;;29.58;38.94;99363.81;5049793;28;20049;-58
2022/07/31 09:16:02;;;;;;;0.20;0.20;;;;;;;29.58;39.06;99358.16;5049800;28;20048;-57
2022/07/31 09:18:28;;;;;;;0.40;0.35;;;;;;;29.55;38.94;99353.38;5049983;28;20059;-58
2022/07/31 09:21:04;;;;;;;0.50;0.30;;;;;;;29.53;39.46;99353.03;5049678;28;20041;-58
2022/07/31 09:23:31;;;;;;;0.32;0.30;;;;;;;29.55;39.23;99347.75;5050048;28;20117;-59
2022/07/31 09:26:04;;;;;;;0.52;0.30;;;;;;;29.54;39.34;99362.28;5049602;28;20045;-58
2022/07/31 09:28:36;;;;;;;0.65;0.30;;;;;;;29.51;39.52;99351.91;5049564;28;20417;-58
2022/07/31 09:31:03;;;;;;;0.25;0.20;;;;;;;29.52;39.21;99364.75;5049652;28;20037;-58
2022/07/31 09:33:29;;;;;;;0.70;0.32;;;;;;;29.52;39.50;99364.75;5049626;28;20045;-59
2022/07/31 09:35:56;;;;;;;0.40;0.30;;;;;;;29.51;39.47;99363.16;5049652;28;20052;-58
2022/07/31 09:38:30;;;;;;;0.50;0.40;;;;;;;29.50;39.66;99365.16;5049455;28;20044;-59
2022/07/31 09:40:55;;;;;;;0.57;0.40;;;;;;;29.48;39.30;99364.00;5055605;28;20430;-59
2022/07/31 09:43:24;;;;;;;0.30;0.30;;;;;;;29.51;39.46;99360.34;5056082;28;20532;-58
2022/07/31 09:46:00;;;;;;;0.40;0.40;;;;;;;29.49;39.45;99360.72;5055928;28;20045;-58
2022/07/31 09:48:26;;;;;;;0.20;0.20;;;;;;;29.50;39.56;99355.88;5055929;28;20072;-58
2022/07/31 09:50:56;;;;;;;0.82;0.30;;;;;;;29.50;39.56;99356.72;5056137;28;20052;-58
2022/07/31 09:53:22;;;;;;;0.38;0.30;;;;;;;29.49;39.31;99345.84;5055799;28;20052;-58
2022/07/31 09:55:56;;;;;;;0.35;0.30;;;;;;;29.51;39.40;99351.91;5055735;28;20049;-58
2022/07/31 09:58:23;;;;;;;0.20;0.20;;;;;;;29.51;39.73;99352.69;5055869;28;20558;-59
2022/07/31 10:00:51;;;;;;;0.32;0.20;;;;;;;29.47;39.85;99351.94;5056062;28;20080;-58
2022/07/31 10:03:18;;;;;;;0.30;0.28;;;;;;;29.47;39.69;99343.47;5055973;28;20099;-59
2022/07/31 10:05:45;;;;;;;0.30;0.30;;;;;;;29.51;39.78;99347.06;5055885;28;20060;-57
2022/07/31 10:08:12;;;;;;;0.20;0.20;;;;;;;29.48;39.71;99336.59;5055838;28;20508;-58
2022/07/31 10:10:38;;;;;;;0.40;0.30;;;;;;;29.51;39.76;99341.41;5055689;28;20052;-58
2022/07/31 10:13:07;;;;;;;0.47;0.30;;;;;;;29.51;39.58;99341.41;5055676;28;20045;-58
2022/07/31 10:15:36;;;;;;;0.20;0.20;;;;;;;29.51;39.50;99330.13;5055570;28;20110;-58
2022/07/31 10:18:02;;;;;;;0.50;0.30;;;;;;;29.52;39.44;99334.53;5055692;28;20436;-58
2022/07/31 10:20:29;;;;;;;0.15;0.15;;;;;;;29.51;39.78;99335.78;5055561;28;20071;-58
2022/07/31 10:23:10;;;;;;;0.43;0.22;;;;;;;29.52;39.75;99331.72;5055487;28;20094;-59
2022/07/31 10:25:40;;;;;;;0.20;0.20;;;;;;;29.53;39.57;99327.66;5055584;28;20075;-57
2022/07/31 10:28:06;;;;;;;0.40;0.30;;;;;;;29.54;39.51;99322.81;5055522;28;20116;-59
2022/07/31 10:30:31;;;;;;;0.35;0.30;;;;;;;29.55;39.68;99318.78;5055442;28;20480;-59
2022/07/31 10:32:58;;;;;;;0.38;0.32;;;;;;;29.55;39.67;99319.56;5055597;28;20045;-59
2022/07/31 10:35:24;;;;;;;0.45;0.32;;;;;;;29.56;39.35;99320.34;5055410;28;20508;-59
2022/07/31 10:37:55;;;;;;;0.20;0.20;;;;;;;29.55;39.54;99319.56;5055500;28;20037;-59
2022/07/31 10:40:32;;;;;;;0.22;0.22;;;;;;;29.54;39.37;99306.69;5055550;28;20126;-58
2022/07/31 10:43:24;;;;;;;0.10;0.10;;;;;;;29.56;39.71;99312.69;5055589;28;20045;-57
2022/07/31 10:45:52;;;;;;;0.28;0.20;;;;;;;29.55;39.40;99308.28;5055225;28;20064;-58
2022/07/31 10:48:19;;;;;;;0.45;0.30;;;;;;;29.56;39.58;99311.91;5055181;28;20048;-58
2022/07/31 10:50:45;;;;;;;0.20;0.20;;;;;;;29.55;39.75;99302.66;5053699;28;20041;-57
2022/07/31 10:53:18;;;;;;;0.40;0.30;;;;;;;29.56;39.65;99295.78;5051623;28;20044;-59
2022/07/31 10:55:44;;;;;;;0.50;0.30;;;;;;;29.56;39.33;99292.16;5051759;28;20509;-57
2022/07/31 10:58:15;;;;;;;0.20;0.20;;;;;;;29.54;39.30;99284.16;5051844;28;20056;-59
2022/07/31 11:00:41;;;;;;;0.52;0.40;;;;;;;29.54;39.31;99278.53;5052056;28;20049;-59
2022/07/31 11:03:20;;;;;;;1.52;0.28;;;;;;;29.57;39.43;99272.00;5051737;28;20041;-57
2022/07/31 11:05:53;;;;;;;0.17;0.17;;;;;;;29.57;39.40;99268.38;5051937;28;20116;-58
2022/07/31 11:08:19;;;;;;;0.57;0.30;;;;;;;29.58;39.52;99275.63;5052003;28;20060;-57
2022/07/31 11:11:02;;;;;;;0.30;0.30;;;;;;;29.55;39.37;99266.00;5051577;28;20512;-58
2022/07/31 11:13:29;;;;;;;0.55;0.30;;;;;;;29.58;39.46;99262.34;5051613;28;20044;-58
2022/07/31 11:16:05;;;;;;;0.20;0.20;;;;;;;29.56;39.45;99259.13;5051696;28;20500;-59
2022/07/31 11:18:30;;;;;;;0.20;0.20;;;;;;;29.58;39.55;99259.50;5051419;28;20041;-59
2022/07/31 11:21:06;;;;;;;0.45;0.40;;;;;;;29.57;39.70;99260.72;5051458;28;20037;-57
2022/07/31 11:23:33;;;;;;;0.30;0.30;;;;;;;29.58;39.88;99258.72;5051537;28;20044;-58
2022/07/31 11:26:00;;;;;;;0.35;0.28;;;;;;;29.57;39.55;99249.44;5051421;28;20175;-58
2022/07/31 11:28:26;;;;;;;0.47;0.30;;;;;;;29.57;39.40;99255.09;5051476;28;20416;-59
2022/07/31 11:30:54;;;;;;;0.25;0.20;;;;;;;29.58;39.82;99248.25;5051422;28;20055;-58
2022/07/31 11:33:42;;;;;;;0.20;0.20;;;;;;;29.58;39.61;99239.78;5051300;28;20041;-57
2022/07/31 11:36:08;;;;;;;0.30;0.20;;;;;;;29.59;39.40;99234.94;5051409;28;20049;-58